createdAt,value
2022-12-27T00:04:28.205Z,1.97
2022-12-27T00:09:33.321Z,2.10
2022-12-27T00:14:38.459Z,2.07
2022-12-27T00:19:45.950Z,2.43
2022-12-27T00:24:51.049Z,2.63
2022-12-27T00:29:55.933Z,2.00
2022-12-27T00:35:10.458Z,2.50
2022-12-27T00:40:16.241Z,2.13
2022-12-27T00:45:21.783Z,2.03
2022-12-27T00:50:29.763Z,2.83
2022-12-27T00:55:34.746Z,2.00
2022-12-27T01:00:40.148Z,2.30
2022-12-27T01:05:47.907Z,2.30
2022-12-27T01:10:53.440Z,2.37
2022-12-27T01:15:58.428Z,2.03
2022-12-27T01:21:08.198Z,2.40
2022-12-27T01:26:15.259Z,2.57
2022-12-27T01:31:22.409Z,2.80
2022-12-27T01:36:31.934Z,3.97
2022-12-27T01:42:06.620Z,2.30
2022-12-27T01:47:19.079Z,2.70
2022-12-27T01:52:28.553Z,2.40
2022-12-27T01:57:33.782Z,2.40
2022-12-27T02:02:38.993Z,2.47
2022-12-27T02:08:05.528Z,2.20
2022-12-27T02:13:10.657Z,2.50
2022-12-27T02:18:15.868Z,2.57
2022-12-27T02:24:04.607Z,2.37
2022-12-27T02:29:24.306Z,2.13
2022-12-27T02:34:34.627Z,2.47
2022-12-27T02:39:44.270Z,3.00
2022-12-27T02:45:04.515Z,2.53
2022-12-27T02:50:24.581Z,2.37
2022-12-27T02:56:04.183Z,2.77
2022-12-27T03:01:33.735Z,2.73
2022-12-27T03:06:55.715Z,1.90
2022-12-27T03:12:14.331Z,2.53
2022-12-27T03:17:28.515Z,2.00
2022-12-27T03:22:48.227Z,1.93
2022-12-27T03:28:22.738Z,2.17
2022-12-27T03:33:30.904Z,2.60
2022-12-27T03:38:44.413Z,2.77
2022-12-27T03:43:50.762Z,2.77
2022-12-27T03:49:22.920Z,2.00
2022-12-27T03:54:30.909Z,2.77
2022-12-27T03:59:36.151Z,2.20
2022-12-27T04:04:46.050Z,2.37
2022-12-27T04:10:03.445Z,2.33
2022-12-27T04:15:23.643Z,3.10
2022-12-27T04:20:43.640Z,2.60
2022-12-27T04:26:01.221Z,2.70
2022-12-27T04:31:18.637Z,2.67
2022-12-27T04:36:26.279Z,2.53
2022-12-27T04:41:43.769Z,3.20
2022-12-27T04:47:01.984Z,2.87
2022-12-27T04:52:32.660Z,2.83
2022-12-27T04:57:39.998Z,2.70
2022-12-27T05:02:47.941Z,2.30
2022-12-27T05:08:08.656Z,3.33
2022-12-27T05:13:27.245Z,2.53
2022-12-27T05:18:32.206Z,2.20
2022-12-27T05:23:52.631Z,2.50
2022-12-27T05:28:59.483Z,2.20
2022-12-27T05:34:04.499Z,2.23
2022-12-27T05:39:12.095Z,2.47
2022-12-27T05:44:17.095Z,2.43
2022-12-27T05:49:22.816Z,2.43
2022-12-27T05:54:30.567Z,2.87
2022-12-27T05:59:37.888Z,1.97
2022-12-27T06:04:43.171Z,2.80
2022-12-27T06:09:50.840Z,1.97
2022-12-27T06:14:55.834Z,2.23
2022-12-27T06:20:00.776Z,1.93
2022-12-27T06:25:14.023Z,2.37
2022-12-27T06:30:19.531Z,1.70
2022-12-27T06:35:24.516Z,2.00
2022-12-27T06:40:32.449Z,2.13
2022-12-27T06:45:39.634Z,2.10
2022-12-27T06:50:44.674Z,1.93
2022-12-27T06:55:52.736Z,1.87
2022-12-27T07:00:57.784Z,1.77
2022-12-27T07:06:04.916Z,2.37
2022-12-27T07:11:14.917Z,1.87
2022-12-27T07:16:22.450Z,2.20
2022-12-27T07:21:30.162Z,2.00
2022-12-27T07:26:37.754Z,1.87
2022-12-27T07:31:43.439Z,1.90
2022-12-27T07:36:48.458Z,2.03
2022-12-27T07:41:56.055Z,2.23
2022-12-27T07:47:03.387Z,2.73
2022-12-27T07:52:08.448Z,2.10
2022-12-27T07:57:17.137Z,2.23
2022-12-27T08:02:22.249Z,2.37
2022-12-27T08:07:28.541Z,2.17
2022-12-27T08:12:36.269Z,2.33
2022-12-27T08:17:41.205Z,2.13
2022-12-27T08:22:46.148Z,2.07
2022-12-27T08:27:55.556Z,2.33
2022-12-27T08:33:00.677Z,2.13
2022-12-27T08:38:06.845Z,2.33
2022-12-27T08:43:17.079Z,2.50
2022-12-27T08:48:22.207Z,2.23
2022-12-27T08:53:27.288Z,2.17
2022-12-27T08:58:34.883Z,2.60
2022-12-27T09:03:40.266Z,2.70
2022-12-27T09:08:46.628Z,2.77
2022-12-27T09:13:54.567Z,3.20
2022-12-27T09:19:01.601Z,2.47
2022-12-27T09:24:10.822Z,2.17
2022-12-27T09:29:18.629Z,2.10
2022-12-27T09:34:23.706Z,2.33
2022-12-27T09:39:28.803Z,2.70
2022-12-27T09:44:44.312Z,2.67
2022-12-27T09:49:53.765Z,1.63
2022-12-27T09:55:07.185Z,2.23
2022-12-27T10:00:35.151Z,2.60
2022-12-27T10:05:42.421Z,1.73
2022-12-27T10:10:56.019Z,2.20
2022-12-27T10:16:15.130Z,2.43
2022-12-27T10:21:25.288Z,1.57
2022-12-27T10:26:30.640Z,2.30
2022-12-27T10:31:44.293Z,2.00
2022-12-27T10:36:49.315Z,2.07
2022-12-27T10:42:06.023Z,2.17
2022-12-27T10:47:14.988Z,1.70
2022-12-27T10:52:22.532Z,2.30
2022-12-27T10:57:29.849Z,2.17
2022-12-27T11:03:00.604Z,2.40
2022-12-27T11:08:22.166Z,2.07
2022-12-27T11:13:27.042Z,2.70
2022-12-27T11:18:40.128Z,2.10
2022-12-27T11:23:49.907Z,1.90
2022-12-27T11:28:58.785Z,2.87
2022-12-27T11:34:10.002Z,2.20
2022-12-27T11:39:40.950Z,1.97
2022-12-27T11:44:50.417Z,1.63
2022-12-27T11:50:03.913Z,1.83
2022-12-27T11:55:33.983Z,2.20
2022-12-27T12:00:55.633Z,2.33
2022-12-27T12:06:18.087Z,1.77
2022-12-27T12:11:37.628Z,2.20
2022-12-27T12:16:59.916Z,2.17
2022-12-27T12:22:31.751Z,1.60
2022-12-27T12:27:47.534Z,1.93
2022-12-27T12:33:15.148Z,2.00
2022-12-27T12:38:26.447Z,1.93
2022-12-27T12:43:49.414Z,2.07
2022-12-27T12:49:11.338Z,1.90
2022-12-27T12:54:37.962Z,2.03
2022-12-27T13:00:15.374Z,1.90
2022-12-27T13:05:26.613Z,1.70
2022-12-27T13:10:59.565Z,2.00
2022-12-27T13:16:19.785Z,2.17
2022-12-27T13:21:40.197Z,2.20
2022-12-27T13:26:57.512Z,2.30
2022-12-27T13:32:12.894Z,2.20
2022-12-27T13:37:29.056Z,1.90
2022-12-27T13:43:29.656Z,1.80
2022-12-27T13:48:55.116Z,2.07
2022-12-27T13:54:37.196Z,2.00
2022-12-27T13:59:58.402Z,2.50
2022-12-27T14:05:47.920Z,2.50
2022-12-27T14:11:00.681Z,1.90
2022-12-27T14:16:32.408Z,2.33
2022-12-27T14:22:13.594Z,3.37
2022-12-27T14:28:07.070Z,2.30
2022-12-27T14:33:54.906Z,2.10
2022-12-27T14:39:30.592Z,1.90
2022-12-27T14:45:14.533Z,2.70
2022-12-27T14:50:56.518Z,2.43
2022-12-27T14:56:17.428Z,2.70
2022-12-27T15:01:42.509Z,1.90
2022-12-27T15:07:11.759Z,2.40
2022-12-27T15:12:26.581Z,1.97
2022-12-27T15:17:46.210Z,2.10
2022-12-27T15:23:04.747Z,2.43
2022-12-27T15:28:17.495Z,2.27
2022-12-27T15:33:36.149Z,3.27
2022-12-27T15:38:54.727Z,2.17
2022-12-27T15:44:21.976Z,1.80
2022-12-27T15:49:46.586Z,2.23
2022-12-27T15:55:16.104Z,2.50
2022-12-27T16:00:33.546Z,1.97
2022-12-27T16:05:52.293Z,2.23
2022-12-27T16:11:01.369Z,2.07
2022-12-27T16:16:08.002Z,2.03
2022-12-27T16:21:19.071Z,3.00
2022-12-27T16:26:30.173Z,3.27
2022-12-27T16:31:45.161Z,2.57
2022-12-27T16:36:51.595Z,2.37
2022-12-27T16:42:05.724Z,2.67
2022-12-27T16:47:16.758Z,2.63
2022-12-27T16:52:50.634Z,2.50
2022-12-27T16:58:35.837Z,2.30
2022-12-27T17:03:49.435Z,2.50
2022-12-27T17:09:24.113Z,2.70
2022-12-27T17:14:37.994Z,2.60
2022-12-27T17:19:49.047Z,2.63
2022-12-27T17:25:00.400Z,3.13
2022-12-27T17:30:18.439Z,3.37
2022-12-27T17:35:31.931Z,4.43
2022-12-27T17:40:42.623Z,3.60
2022-12-27T17:45:56.534Z,3.23
2022-12-27T17:51:05.548Z,3.00
2022-12-27T17:56:34.875Z,3.60
2022-12-27T18:01:47.415Z,5.80
2022-12-27T18:06:56.549Z,3.40
2022-12-27T18:12:01.752Z,3.50
2022-12-27T18:17:09.321Z,8.17
2022-12-27T18:22:22.008Z,7.43
2022-12-27T18:27:29.923Z,5.23
2022-12-27T18:32:39.338Z,5.23
2022-12-27T18:37:45.573Z,3.87
2022-12-27T18:42:54.622Z,3.50
2022-12-27T18:48:05.040Z,2.67
2022-12-27T18:53:25.257Z,2.90
2022-12-27T18:58:32.201Z,2.87
2022-12-27T19:03:40.993Z,2.83
2022-12-27T19:08:50.759Z,2.87
2022-12-27T19:13:59.493Z,2.50
2022-12-27T19:19:11.877Z,2.57
2022-12-27T19:24:41.626Z,2.50
2022-12-27T19:29:54.577Z,2.77
2022-12-27T19:35:04.453Z,2.63
2022-12-27T19:40:17.248Z,3.37
2022-12-27T19:45:22.807Z,2.67
2022-12-27T19:50:30.570Z,2.47
2022-12-27T19:55:36.665Z,2.20
2022-12-27T20:00:41.950Z,2.60
2022-12-27T20:06:12.777Z,3.30
2022-12-27T20:11:18.590Z,2.40
2022-12-27T20:16:23.763Z,3.17
2022-12-27T20:21:31.839Z,3.10
2022-12-27T20:26:36.821Z,3.37
2022-12-27T20:31:44.906Z,3.00
2022-12-27T20:36:55.599Z,2.83
2022-12-27T20:42:02.793Z,3.43
2022-12-27T20:47:07.863Z,4.20
2022-12-27T20:52:15.896Z,3.30
2022-12-27T20:57:23.069Z,3.10
2022-12-27T21:02:28.202Z,3.23
2022-12-27T21:07:37.808Z,3.07
2022-12-27T21:12:43.181Z,3.00
2022-12-27T21:17:48.160Z,3.03
2022-12-27T21:22:56.262Z,2.80
2022-12-27T21:28:01.298Z,2.63
2022-12-27T21:33:06.209Z,2.67
2022-12-27T21:38:14.565Z,2.63
2022-12-27T21:43:19.986Z,2.70
2022-12-27T21:48:25.620Z,2.90
2022-12-27T21:53:33.085Z,3.10
2022-12-27T21:58:41.384Z,2.83
2022-12-27T22:03:48.760Z,2.60
2022-12-27T22:08:58.792Z,2.83
2022-12-27T22:14:04.735Z,2.17
2022-12-27T22:19:10.564Z,2.80
2022-12-27T22:24:20.111Z,2.50
2022-12-27T22:29:26.737Z,2.30
2022-12-27T22:34:34.274Z,2.63
2022-12-27T22:39:42.088Z,2.77
2022-12-27T22:44:48.044Z,2.90
2022-12-27T22:49:53.904Z,2.90
2022-12-27T22:55:04.295Z,3.00
2022-12-27T23:00:15.999Z,2.60
2022-12-27T23:05:23.218Z,2.60
2022-12-27T23:10:30.765Z,2.57
2022-12-27T23:15:36.649Z,2.23
2022-12-27T23:21:19.294Z,2.30
2022-12-27T23:26:21.449Z,2.37
2022-12-27T23:31:30.137Z,2.10
2022-12-27T23:36:35.976Z,2.13
2022-12-27T23:41:45.601Z,2.50
2022-12-27T23:46:51.024Z,2.10
2022-12-27T23:51:56.333Z,2.10
2022-12-27T23:57:20.495Z,2.00
